Map

Track Data

SID SEASON NUMBER BASIN SUBBASIN NAME ISO_TIME NATURE LAT LON WMO_WIND WMO_PRES WMO_AGENCY TRACK_TYPE DIST2LAND LANDFALL IFLAG USA_AGENCY USA_ATCF_ID USA_LAT USA_LON USA_RECORD USA_STATUS USA_WIND USA_PRES USA_SSHS USA_R34_NE USA_R34_SE USA_R34_SW USA_R34_NW USA_R50_NE USA_R50_SE USA_R50_SW USA_R50_NW USA_R64_NE USA_R64_SE USA_R64_SW USA_R64_NW USA_POCI USA_ROCI USA_RMW USA_EYE TOKYO_LAT TOKYO_LON TOKYO_GRADE TOKYO_WIND TOKYO_PRES TOKYO_R50_DIR TOKYO_R50_LONG TOKYO_R50_SHORT TOKYO_R30_DIR TOKYO_R30_LONG TOKYO_R30_SHORT TOKYO_LAND CMA_LAT CMA_LON CMA_CAT CMA_WIND CMA_PRES HKO_LAT HKO_LON HKO_CAT HKO_WIND HKO_PRES NEWDELHI_LAT NEWDELHI_LON NEWDELHI_GRADE NEWDELHI_WIND NEWDELHI_PRES NEWDELHI_CI NEWDELHI_DP NEWDELHI_POCI REUNION_LAT REUNION_LON REUNION_TYPE REUNION_WIND REUNION_PRES REUNION_TNUM REUNION_CI REUNION_RMW REUNION_R34_NE REUNION_R34_SE REUNION_R34_SW REUNION_R34_NW REUNION_R50_NE REUNION_R50_SE REUNION_R50_SW REUNION_R50_NW REUNION_R64_NE REUNION_R64_SE REUNION_R64_SW REUNION_R64_NW BOM_LAT BOM_LON BOM_TYPE BOM_WIND BOM_PRES BOM_TNUM BOM_CI BOM_RMW BOM_R34_NE BOM_R34_SE BOM_R34_SW BOM_R34_NW BOM_R50_NE BOM_R50_SE BOM_R50_SW BOM_R50_NW BOM_R64_NE BOM_R64_SE BOM_R64_SW BOM_R64_NW BOM_ROCI BOM_POCI BOM_EYE BOM_POS_METHOD BOM_PRES_METHOD NADI_LAT NADI_LON NADI_CAT NADI_WIND NADI_PRES WELLINGTON_LAT WELLINGTON_LON WELLINGTON_WIND WELLINGTON_PRES DS824_LAT DS824_LON DS824_STAGE DS824_WIND DS824_PRES TD9636_LAT TD9636_LON TD9636_STAGE TD9636_WIND TD9636_PRES TD9635_LAT TD9635_LON TD9635_WIND TD9635_PRES TD9635_ROCI NEUMANN_LAT NEUMANN_LON NEUMANN_CLASS NEUMANN_WIND NEUMANN_PRES MLC_LAT MLC_LON MLC_CLASS MLC_WIND MLC_PRES USA_GUST BOM_GUST BOM_GUST_PER REUNION_GUST REUNION_GUST_PER USA_SEAHGT USA_SEARAD_NE USA_SEARAD_SE USA_SEARAD_SW USA_SEARAD_NW STORM_SPEED STORM_DIR
1931210N12133 1931 21 WP MM NOT_NAMED 1931-07-29 10:00:00 NR 12.4000 133.000 main 799 780 __________O___ -1 12.4000 133.000 7 6 305
1931210N12133 1931 21 WP MM NOT_NAMED 1931-07-29 12:00:00 NR 12.5051 132.844 main 780 761 __________P___ -1 12.5051 132.844 7 6 304
1931210N12133 1931 21 WP MM NOT_NAMED 1931-07-29 15:00:00 NR 12.6734 132.594 main 764 735 __________P___ -1 12.6734 132.594 7 6 304
1931210N12133 1931 21 WP MM NOT_NAMED 1931-07-29 18:00:00 NR 12.8688 132.301 main 738 702 __________P___ -1 12.8688 132.301 7 8 304
1931210N12133 1931 21 WP MM NOT_NAMED 1931-07-29 21:00:00 NR 13.1078 131.940 main 702 692 __________P___ -1 13.1078 131.940 7 9 304
1931210N12133 1931 21 WP MM NOT_NAMED 1931-07-29 22:00:00 NR 13.2000 131.800 main 692 664 __________O___ -1 13.2000 131.800 7 11 304
1931210N12133 1931 21 WP MM NOT_NAMED 1931-07-30 00:00:00 NR 13.4046 131.488 main 664 619 __________P___ -1 13.4046 131.488 7 12 304
1931210N12133 1931 21 WP MM NOT_NAMED 1931-07-30 03:00:00 NR 13.7492 130.957 main 619 571 __________P___ -1 13.7492 130.957 7 13 304
1931210N12133 1931 21 WP MM NOT_NAMED 1931-07-30 06:00:00 NR 14.1169 130.380 main 571 531 __________P___ -1 14.1169 130.380 7 14 303
1931210N12133 1931 21 WP MM NOT_NAMED 1931-07-30 09:00:00 NR 14.4827 129.792 main 531 518 __________P___ -1 14.4827 129.792 7 13 303
1931210N12133 1931 21 WP MM NOT_NAMED 1931-07-30 10:00:00 NR 14.6000 129.600 main 518 503 __________O___ -1 14.6000 129.600 7 11 302
1931210N12133 1931 21 WP MM NOT_NAMED 1931-07-30 12:00:00 NR 14.7891 129.292 main 503 482 __________P___ -1 14.7891 129.292 7 10 302
1931210N12133 1931 21 WP MM NOT_NAMED 1931-07-30 15:00:00 NR 15.0601 128.839 main 482 448 __________P___ -1 15.0601 128.839 7 11 301
1931210N12133 1931 21 WP MM NOT_NAMED 1931-07-30 18:00:00 NR 15.3446 128.341 main 448 408 __________P___ -1 15.3446 128.341 7 12 300
1931210N12133 1931 21 WP MM NOT_NAMED 1931-07-30 21:00:00 NR 15.6745 127.736 main 408 395 __________P___ -1 15.6745 127.736 7 14 299
1931210N12133 1931 21 WP MM NOT_NAMED 1931-07-30 22:00:00 NR 15.8000 127.500 main 395 364 __________O___ -1 15.8000 127.500 3 18 299
1931210N12133 1931 21 WP MM NOT_NAMED 1931-07-31 00:00:00 NR 16.0940 126.935 main 364 337 __________P___ -1 16.0940 126.935 3 20 298
1931210N12133 1931 21 WP MM NOT_NAMED 1931-07-31 03:00:00 NR 16.5850 125.966 main 343 255 __________P___ -1 16.5850 125.966 3 22 298
1931210N12133 1931 21 WP MM NOT_NAMED 1931-07-31 06:00:00 NR 17.1075 124.914 main 255 152 __________P___ -1 17.1075 124.914 3 23 297
1931210N12133 1931 21 WP MM NOT_NAMED 1931-07-31 09:00:00 NR 17.6306 123.847 main 152 134 __________P___ -1 17.6306 123.847 3 23 297
1931210N12133 1931 21 WP MM NOT_NAMED 1931-07-31 10:00:00 NR 17.8000 123.500 main 129 57 __________O___ -1 17.8000 123.500 4 22 298
1931210N12133 1931 21 WP MM NOT_NAMED 1931-07-31 12:00:00 NR 18.1317 122.843 main 57 0 __________P___ -1 18.1317 122.843 4 21 298
1931210N12133 1931 21 WP MM NOT_NAMED 1931-07-31 15:00:00 NR 18.6180 121.875 main 30 30 __________P___ -1 18.6180 121.875 4 20 298
1931210N12133 1931 21 WP MM NOT_NAMED 1931-07-31 18:00:00 NR 19.0735 120.947 main 55 55 __________P___ -1 19.0735 120.947 4 19 297
1931210N12133 1931 21 WP MM NOT_NAMED 1931-07-31 21:00:00 NR 19.4791 120.075 main 124 131 __________P___ -1 19.4791 120.075 4 18 296
1931210N12133 1931 21 WP MM NOT_NAMED 1931-07-31 22:00:00 NR 19.6000 119.800 main 153 153 __________O___ -1 19.6000 119.800 4 16 294
1931210N12133 1931 21 WP MM NOT_NAMED 1931-08-01 00:00:00 NR 19.8081 119.277 main 206 214 __________P___ -1 19.8081 119.277 4 15 292
1931210N12133 1931 21 WP MM NOT_NAMED 1931-08-01 03:00:00 NR 20.0710 118.552 main 283 291 __________P___ -1 20.0710 118.552 4 14 290
1931210N12133 1931 21 WP MM NOT_NAMED 1931-08-01 06:00:00 NR 20.2999 117.874 main 324 277 __________P___ -1 20.2999 117.874 4 13 290
1931210N12133 1931 21 WP MM NOT_NAMED 1931-08-01 09:00:00 NR 20.5225 117.218 main 277 262 __________P___ -1 20.5225 117.218 4 13 290
1931210N12133 1931 21 WP MM NOT_NAMED 1931-08-01 10:00:00 NR 20.6000 117.000 main 262 227 __________O___ -1 20.6000 117.000 4 13 291
1931210N12133 1931 21 WP MM NOT_NAMED 1931-08-01 12:00:00 NR 20.7643 116.560 main 227 190 __________P___ -1 20.7643 116.560 4 13 293
1931210N12133 1931 21 WP MM NOT_NAMED 1931-08-01 15:00:00 NR 21.0303 115.891 main 190 137 __________P___ -1 21.0303 115.891 4 14 294
1931210N12133 1931 21 WP MM NOT_NAMED 1931-08-01 18:00:00 NR 21.3126 115.213 main 137 80 __________P___ -1 21.3126 115.213 4 14 294
1931210N12133 1931 21 WP MM NOT_NAMED 1931-08-01 21:00:00 NR 21.6029 114.529 main 80 67 __________P___ -1 21.6029 114.529 4 14 295
1931210N12133 1931 21 WP MM NOT_NAMED 1931-08-01 22:00:00 NR 21.7000 114.300 main 67 __________O___ -1 21.7000 114.300 7 14 295

Digital Typhoon Data and Search

About IBTrACS Database

This database is a web-friendly format of International Best Track Archive for Climate Stewardship (IBTrACS), a global best track data archive curated by NOAA dating back to 1842.

Updated: 2021-10-08